createdAt,value
2023-02-24T04:28:51.216Z,101177.84
2023-02-24T04:31:21.308Z,101181.69
2023-02-24T04:33:54.915Z,101186.47
2023-02-24T04:36:24.583Z,101178.13
2023-02-24T04:38:55.804Z,101172.72
2023-02-24T04:41:26.254Z,101156.84
2023-02-24T04:43:56.194Z,101161.09
2023-02-24T04:46:25.942Z,101150.53
2023-02-24T04:48:56.118Z,101144.22
2023-02-24T04:51:25.750Z,101156.19
2023-02-24T04:53:56.951Z,101158.72
2023-02-24T04:56:26.693Z,101141.41
2023-02-24T04:58:56.526Z,101138.56
2023-02-24T05:01:26.216Z,101143.66
2023-02-24T05:03:56.045Z,101131.09
2023-02-24T05:06:25.754Z,101127.47
2023-02-24T05:08:55.384Z,101130.13
2023-02-24T05:11:25.167Z,101124.06
2023-02-24T05:13:54.811Z,101119.72
2023-02-24T05:16:24.619Z,101119.00
2023-02-24T05:19:14.235Z,101114.63
2023-02-24T05:21:43.842Z,101110.41
2023-02-24T05:24:14.023Z,101116.91
2023-02-24T05:26:44.002Z,101123.09
2023-02-24T05:29:14.155Z,101119.72
2023-02-24T05:31:43.827Z,101112.69
2023-02-24T05:34:18.589Z,101101.66
2023-02-24T05:36:48.465Z,101102.47
2023-02-24T05:39:21.040Z,101115.03
2023-02-24T05:41:51.441Z,101100.66
2023-02-24T05:44:24.686Z,101096.91
2023-02-24T05:47:00.362Z,101101.53
2023-02-24T05:49:34.659Z,101106.69
2023-02-24T05:52:09.295Z,101104.31
2023-02-24T05:54:43.311Z,101099.41
2023-02-24T05:57:18.839Z,101100.22
2023-02-24T05:59:49.944Z,101104.72
2023-02-24T06:02:28.792Z,101109.59
2023-02-24T06:05:00.412Z,101108.53
2023-02-24T06:07:38.977Z,101098.59
2023-02-24T06:10:11.869Z,101108.25
2023-02-24T06:12:41.516Z,101110.09
2023-02-24T06:15:11.545Z,101112.94
2023-02-24T06:17:41.280Z,101110.56
2023-02-24T06:20:16.943Z,101116.03
2023-02-24T06:22:46.689Z,101112.94
2023-02-24T06:25:16.363Z,101124.06
2023-02-24T06:27:46.539Z,101116.53
2023-02-24T06:30:16.753Z,101124.63
2023-02-24T06:32:47.035Z,101127.19
2023-02-24T06:35:17.406Z,101119.06
2023-02-24T06:37:47.187Z,101125.03
2023-02-24T06:40:19.683Z,101133.25
2023-02-24T06:42:56.385Z,101133.03
2023-02-24T06:45:28.385Z,101128.53
2023-02-24T06:47:58.083Z,101121.25
2023-02-24T06:50:27.753Z,101127.91
2023-02-24T06:53:02.183Z,101127.63
2023-02-24T06:55:31.774Z,101129.88
2023-02-24T06:58:05.810Z,101129.47
2023-02-24T07:00:41.987Z,101127.22
2023-02-24T07:03:19.889Z,101130.22
2023-02-24T07:06:12.762Z,101127.09
2023-02-24T07:08:42.922Z,101133.75
2023-02-24T07:11:13.091Z,101138.53
2023-02-24T07:13:46.118Z,101136.97
2023-02-24T07:16:17.800Z,101146.84
2023-02-24T07:18:49.881Z,101135.47
2023-02-24T07:21:22.191Z,101132.22
2023-02-24T07:23:52.251Z,101134.19
2023-02-24T07:26:25.694Z,101136.84
2023-02-24T07:28:59.636Z,101137.13
2023-02-24T07:31:29.355Z,101141.94
2023-02-24T07:33:59.111Z,101145.47
2023-02-24T07:36:31.472Z,101141.25
2023-02-24T07:39:01.449Z,101148.44
2023-02-24T07:41:31.543Z,101150.41
2023-02-24T07:44:04.711Z,101154.91
2023-02-24T07:46:35.241Z,101146.03
2023-02-24T07:49:05.712Z,101154.91
2023-02-24T07:51:35.358Z,101157.03
2023-02-24T07:54:05.040Z,101166.03
2023-02-24T07:56:34.670Z,101161.69
2023-02-24T07:59:09.397Z,101168.84
2023-02-24T08:01:42.473Z,101166.16
2023-02-24T08:04:17.419Z,101172.53
2023-02-24T08:06:48.148Z,101172.66
2023-02-24T08:09:20.723Z,101174.63
2023-02-24T08:11:54.826Z,101174.63
2023-02-24T08:14:36.425Z,101178.44
2023-02-24T08:17:07.021Z,101182.66
2023-02-24T08:19:41.245Z,101185.50
2023-02-24T08:22:25.634Z,101187.16
2023-02-24T08:24:56.917Z,101189.28
2023-02-24T08:27:27.544Z,101190.28
2023-02-24T08:30:00.311Z,101190.28
2023-02-24T08:32:35.535Z,101199.28
2023-02-24T08:35:19.113Z,101198.56
2023-02-24T08:37:50.593Z,101203.09
2023-02-24T08:40:34.478Z,101211.50
2023-02-24T08:43:18.116Z,101205.44
2023-02-24T08:45:52.415Z,101216.28
2023-02-24T08:48:49.859Z,101209.94
2023-02-24T08:51:30.075Z,101214.56
2023-02-24T08:54:01.479Z,101227.25
2023-02-24T08:56:35.931Z,101227.53
2023-02-24T08:59:07.349Z,101232.03
2023-02-24T09:01:39.330Z,101227.69
2023-02-24T09:04:20.569Z,101239.22
2023-02-24T09:07:11.073Z,101228.63
2023-02-24T09:09:43.725Z,101239.22
2023-02-24T09:12:23.356Z,101249.78
2023-02-24T09:14:57.983Z,101252.31
2023-02-24T09:17:51.392Z,101255.97
2023-02-24T09:20:43.524Z,101257.78
2023-02-24T09:23:21.488Z,101260.63
2023-02-24T09:25:55.829Z,101256.25
2023-02-24T09:28:26.920Z,101260.88
2023-02-24T09:30:58.395Z,101263.00
2023-02-24T09:33:40.341Z,101273.69
2023-02-24T09:36:21.701Z,101273.53
2023-02-24T09:39:01.886Z,101263.84
2023-02-24T09:41:33.325Z,101278.03
2023-02-24T09:44:19.680Z,101284.38
2023-02-24T09:47:00.131Z,101289.72
2023-02-24T09:49:47.995Z,101288.75
2023-02-24T09:52:20.766Z,101301.53
2023-02-24T09:55:10.079Z,101302.78
2023-02-24T09:58:29.391Z,101307.31
2023-02-24T10:01:23.076Z,101313.50
2023-02-24T10:04:20.750Z,101313.75
2023-02-24T10:06:59.248Z,101320.09
2023-02-24T10:09:40.702Z,101324.59
2023-02-24T10:12:25.536Z,101333.63
2023-02-24T10:15:20.642Z,101326.84
2023-02-24T10:17:59.662Z,101329.22
2023-02-24T10:20:46.136Z,101335.72
2023-02-24T10:23:46.596Z,101331.19
2023-02-24T10:27:07.368Z,101343.72
2023-02-24T10:29:52.350Z,101338.78
2023-02-24T10:32:35.466Z,101345.09
2023-02-24T10:35:05.253Z,101341.72
2023-02-24T10:37:35.803Z,101349.03
2023-02-24T10:40:14.531Z,101350.00
2023-02-24T10:42:47.332Z,101351.69
2023-02-24T10:45:35.285Z,101351.84
2023-02-24T10:48:10.938Z,101357.19
2023-02-24T10:50:55.401Z,101364.38
2023-02-24T10:53:41.097Z,101372.66
2023-02-24T10:56:29.016Z,101372.66
2023-02-24T10:59:22.266Z,101374.47
2023-02-24T11:01:57.164Z,101386.13
2023-02-24T11:04:55.490Z,101382.59
2023-02-24T11:07:35.190Z,101390.78
2023-02-24T11:10:27.477Z,101380.19
2023-02-24T11:13:15.851Z,101388.22
2023-02-24T11:16:13.891Z,101397.47
2023-02-24T11:18:49.354Z,101396.63
2023-02-24T11:21:19.705Z,101400.16
2023-02-24T11:23:51.994Z,101404.66
2023-02-24T11:26:38.904Z,101410.25
2023-02-24T11:29:15.099Z,101420.94
2023-02-24T11:32:15.115Z,101419.16
2023-02-24T11:35:07.888Z,101412.22
2023-02-24T11:38:03.476Z,101418.41
2023-02-24T11:40:45.224Z,101430.19
2023-02-24T11:43:20.039Z,101436.69
2023-02-24T11:45:55.920Z,101443.72
2023-02-24T11:48:36.392Z,101440.19
2023-02-24T11:51:08.010Z,101447.38
2023-02-24T11:54:13.926Z,101449.06
2023-02-24T11:56:48.571Z,101449.06
2023-02-24T11:59:39.933Z,101440.31
2023-02-24T12:02:37.175Z,101453.66
2023-02-24T12:05:21.208Z,101450.41
2023-02-24T12:07:52.470Z,101457.56
2023-02-24T12:10:36.449Z,101461.97
2023-02-24T12:13:27.888Z,101461.09
2023-02-24T12:16:17.289Z,101463.75
2023-02-24T12:18:47.904Z,101464.63
2023-02-24T12:21:26.651Z,101466.44
2023-02-24T12:23:56.337Z,101473.75
2023-02-24T12:26:27.550Z,101475.03
2023-02-24T12:29:44.778Z,101483.34
2023-02-24T12:32:42.875Z,101478.09
2023-02-24T12:35:21.474Z,101483.59
2023-02-24T12:38:33.143Z,101487.09
2023-02-24T12:41:13.198Z,101488.94
2023-02-24T12:44:09.506Z,101487.09
2023-02-24T12:46:39.848Z,101487.09
2023-02-24T12:49:30.811Z,101487.81
2023-02-24T12:52:37.119Z,101492.31
2023-02-24T12:55:29.786Z,101498.88
2023-02-24T12:58:16.187Z,101499.75
2023-02-24T13:00:45.945Z,101500.81
2023-02-24T13:03:36.834Z,101506.88
2023-02-24T13:06:35.189Z,101509.69
2023-02-24T13:09:24.553Z,101512.47
2023-02-24T13:12:18.112Z,101507.13
2023-02-24T13:14:47.842Z,101509.94
2023-02-24T13:17:19.061Z,101512.47
2023-02-24T13:19:49.283Z,101511.88
2023-02-24T13:22:19.534Z,101503.75
2023-02-24T13:24:57.916Z,101506.28
2023-02-24T13:27:28.489Z,101508.94
2023-02-24T13:30:02.789Z,101501.19
2023-02-24T13:32:36.257Z,101505.56
2023-02-24T13:35:09.030Z,101512.00
2023-02-24T13:37:40.310Z,101521.00
2023-02-24T13:40:25.752Z,101519.03
2023-02-24T13:43:03.066Z,101520.03
2023-02-24T13:45:43.366Z,101517.59
2023-02-24T13:48:45.374Z,101521.97
2023-02-24T13:51:24.270Z,101523.09
2023-02-24T13:54:12.655Z,101525.03
2023-02-24T13:56:46.810Z,101520.66
2023-02-24T13:59:26.126Z,101523.31
2023-02-24T14:02:03.585Z,101523.31
2023-02-24T14:04:34.163Z,101529.75
2023-02-24T14:07:11.339Z,101533.28
2023-02-24T14:09:45.119Z,101539.34
2023-02-24T14:12:28.967Z,101534.84
2023-02-24T14:14:58.672Z,101538.75
2023-02-24T14:17:38.595Z,101538.63
2023-02-24T14:20:17.223Z,101539.59
2023-02-24T14:22:50.763Z,101541.28
2023-02-24T14:25:20.538Z,101538.63
2023-02-24T14:27:52.397Z,101538.63
2023-02-24T14:30:27.761Z,101535.09
2023-02-24T14:32:57.600Z,101536.09
2023-02-24T14:35:54.828Z,101541.28
2023-02-24T14:38:45.679Z,101541.56
2023-02-24T14:41:26.226Z,101546.91
2023-02-24T14:43:57.872Z,101538.28
2023-02-24T14:46:27.593Z,101548.97
2023-02-24T14:48:58.153Z,101542.66
2023-02-24T14:51:30.345Z,101537.19
2023-02-24T14:54:01.906Z,101529.41
2023-02-24T14:56:34.818Z,101533.91
2023-02-24T14:59:16.924Z,101531.50
2023-02-24T15:01:50.166Z,101534.03
2023-02-24T15:04:39.254Z,101533.31
2023-02-24T15:07:19.051Z,101534.28
2023-02-24T15:09:49.115Z,101537.69
2023-02-24T15:12:23.940Z,101543.03
2023-02-24T15:15:02.383Z,101543.75
2023-02-24T15:17:32.632Z,101551.66
2023-02-24T15:20:02.193Z,101556.25
2023-02-24T15:22:40.705Z,101548.38
2023-02-24T15:25:28.067Z,101550.31
2023-02-24T15:28:02.516Z,101550.06
2023-02-24T15:30:38.662Z,101546.41
2023-02-24T15:33:10.121Z,101551.06
2023-02-24T15:35:39.991Z,101555.66
2023-02-24T15:38:09.593Z,101556.63
2023-02-24T15:40:39.213Z,101552.97
2023-02-24T15:43:13.460Z,101562.81
2023-02-24T15:45:42.386Z,101562.81
2023-02-24T15:48:31.033Z,101573.63
2023-02-24T15:51:02.113Z,101575.72
2023-02-24T15:53:31.796Z,101574.97
2023-02-24T15:56:01.571Z,101579.31
2023-02-24T15:58:32.126Z,101585.50
2023-02-24T16:01:01.773Z,101580.06
2023-02-24T16:03:31.391Z,101583.97
2023-02-24T16:06:01.211Z,101585.78
2023-02-24T16:08:30.810Z,101587.47
2023-02-24T16:11:00.448Z,101596.47
2023-02-24T16:13:30.240Z,101599.97
2023-02-24T16:15:59.955Z,101601.81
2023-02-24T16:18:29.601Z,101608.97
2023-02-24T16:20:59.234Z,101611.66
2023-02-24T16:23:29.120Z,101613.56
2023-02-24T16:26:00.331Z,101610.06
2023-02-24T16:28:29.999Z,101609.22
2023-02-24T16:30:59.873Z,101611.13
2023-02-24T16:33:30.110Z,101608.47
2023-02-24T16:36:00.073Z,101606.53
2023-02-24T16:38:29.949Z,101610.16
2023-02-24T16:40:59.498Z,101616.38
2023-02-24T16:43:29.153Z,101615.50
2023-02-24T16:46:04.266Z,101618.31
2023-02-24T16:48:38.793Z,101614.78
2023-02-24T16:51:11.251Z,101610.44
2023-02-24T16:53:40.896Z,101612.22
2023-02-24T16:56:10.685Z,101615.03
2023-02-24T16:58:40.451Z,101616.00
2023-02-24T17:01:11.103Z,101612.59
2023-02-24T17:03:44.952Z,101611.50
2023-02-24T17:06:14.734Z,101621.34
2023-02-24T17:08:45.823Z,101623.28
2023-02-24T17:11:16.503Z,101624.13
2023-02-24T17:13:46.293Z,101628.63
2023-02-24T17:16:15.961Z,101624.13
2023-02-24T17:18:45.576Z,101618.78
2023-02-24T17:21:15.975Z,101622.56
2023-02-24T17:23:45.735Z,101620.75
2023-02-24T17:26:18.570Z,101622.56
2023-02-24T17:28:48.172Z,101622.56
2023-02-24T17:31:17.832Z,101628.84
2023-02-24T17:33:47.608Z,101626.31
2023-02-24T17:36:17.408Z,101617.56
2023-02-24T17:38:48.500Z,101628.13
2023-02-24T17:41:18.104Z,101624.50
2023-02-24T17:43:47.747Z,101624.63
2023-02-24T17:46:17.327Z,101629.97
2023-02-24T17:48:47.000Z,101623.78
2023-02-24T17:51:17.638Z,101632.72
2023-02-24T17:53:47.282Z,101625.69
2023-02-24T17:56:16.924Z,101624.84
2023-02-24T17:58:46.582Z,101624.84
2023-02-24T18:01:16.225Z,101625.94
2023-02-24T18:03:46.020Z,101621.44
2023-02-24T18:06:15.777Z,101623.25
2023-02-24T18:08:45.345Z,101625.94
2023-02-24T18:11:18.833Z,101625.94
2023-02-24T18:13:52.256Z,101624.25
2023-02-24T18:16:22.129Z,101624.38
2023-02-24T18:18:52.525Z,101624.38
2023-02-24T18:21:22.185Z,101628.84
2023-02-24T18:23:51.854Z,101627.03
2023-02-24T18:26:23.880Z,101636.97
2023-02-24T18:28:55.329Z,101638.66
2023-02-24T18:31:26.300Z,101634.31
2023-02-24T18:33:57.194Z,101632.47
2023-02-24T18:36:27.308Z,101636.00
2023-02-24T18:38:58.288Z,101651.16
2023-02-24T18:41:28.347Z,101641.56
2023-02-24T18:43:59.272Z,101647.78
2023-02-24T18:46:29.293Z,101652.25
2023-02-24T18:48:59.087Z,101648.72
2023-02-24T18:51:30.516Z,101654.91
2023-02-24T18:54:00.576Z,101648.63
2023-02-24T18:56:30.915Z,101642.69
2023-02-24T18:59:01.064Z,101653.34
2023-02-24T19:01:38.099Z,101647.19
2023-02-24T19:04:08.369Z,101644.59
2023-02-24T19:06:38.560Z,101646.44
2023-02-24T19:09:11.278Z,101648.25
2023-02-24T19:11:41.457Z,101643.75
2023-02-24T19:14:12.508Z,101652.59
2023-02-24T19:16:42.236Z,101649.22
2023-02-24T19:19:17.556Z,101653.72
2023-02-24T19:21:47.201Z,101655.66
2023-02-24T19:24:16.880Z,101651.06
2023-02-24T19:26:47.417Z,101652.00
2023-02-24T19:29:17.925Z,101657.34
2023-02-24T19:31:47.688Z,101658.31
2023-02-24T19:34:17.542Z,101659.16
2023-02-24T19:36:47.176Z,101667.28
2023-02-24T19:39:17.637Z,101661.09
2023-02-24T19:41:49.444Z,101661.09
2023-02-24T19:44:19.427Z,101658.50
2023-02-24T19:46:49.057Z,101669.97
2023-02-24T19:49:18.609Z,101663.97
2023-02-24T19:51:48.520Z,101663.00
2023-02-24T19:54:18.348Z,101666.41
2023-02-24T19:56:47.915Z,101674.53
2023-02-24T19:59:17.620Z,101671.97
2023-02-24T20:01:48.125Z,101675.59
2023-02-24T20:04:17.811Z,101670.53
2023-02-24T20:06:47.460Z,101679.38
2023-02-24T20:09:19.122Z,101668.69
2023-02-24T20:11:49.349Z,101683.72
2023-02-24T20:14:20.037Z,101685.56
2023-02-24T20:16:49.895Z,101685.69
2023-02-24T20:19:19.690Z,101688.34
2023-02-24T20:21:49.588Z,101682.13
2023-02-24T20:24:19.442Z,101689.28
2023-02-24T20:26:51.037Z,101682.28
2023-02-24T20:29:22.256Z,101692.19
2023-02-24T20:31:52.119Z,101690.41
2023-02-24T20:34:22.141Z,101688.69
2023-02-24T20:36:51.742Z,101696.59
2023-02-24T20:39:23.357Z,101702.03
2023-02-24T20:41:55.311Z,101707.34
2023-02-24T20:44:24.929Z,101706.63
2023-02-24T20:46:54.542Z,101704.19
2023-02-24T20:49:24.183Z,101705.03
2023-02-24T20:51:53.782Z,101708.69
2023-02-24T20:54:24.429Z,101721.19
2023-02-24T20:56:54.055Z,101714.25
2023-02-24T20:59:23.828Z,101722.25
2023-02-24T21:01:53.781Z,101724.06
2023-02-24T21:04:23.676Z,101723.22
2023-02-24T21:06:53.475Z,101725.16
2023-02-24T21:09:23.087Z,101727.81
2023-02-24T21:11:52.678Z,101721.75
2023-02-24T21:14:23.818Z,101727.94
2023-02-24T21:16:54.350Z,101735.94
2023-02-24T21:19:24.320Z,101735.19
2023-02-24T21:21:53.897Z,101737.00
2023-02-24T21:24:24.333Z,101737.16
2023-02-24T21:26:54.000Z,101743.31
2023-02-24T21:29:23.559Z,101745.16
2023-02-24T21:31:53.323Z,101742.47
2023-02-24T21:34:23.064Z,101746.22
2023-02-24T21:36:52.843Z,101745.38
2023-02-24T21:39:22.498Z,101746.44
2023-02-24T21:41:52.251Z,101756.88
2023-02-24T21:44:23.024Z,101757.09
2023-02-24T21:46:52.697Z,101756.13
2023-02-24T21:49:22.329Z,101753.59
2023-02-24T21:51:56.675Z,101756.13
2023-02-24T21:54:28.013Z,101753.47
2023-02-24T21:56:57.631Z,101761.59
2023-02-24T21:59:27.214Z,101768.75
2023-02-24T22:01:56.985Z,101780.38
2023-02-24T22:04:26.661Z,101770.78
2023-02-24T22:06:56.340Z,101775.06
2023-02-24T22:09:27.054Z,101783.06
2023-02-24T22:11:56.693Z,101790.94
2023-02-24T22:14:26.385Z,101792.25
2023-02-24T22:16:56.688Z,101795.63
2023-02-24T22:19:26.618Z,101801.09
2023-02-24T22:21:56.248Z,101803.84
2023-02-24T22:24:25.822Z,101810.03
2023-02-24T22:26:55.422Z,101812.72
2023-02-24T22:29:24.994Z,101816.34
2023-02-24T22:31:55.032Z,101825.19
2023-02-24T22:34:24.848Z,101828.84
2023-02-24T22:36:55.181Z,101833.31
2023-02-24T22:39:24.997Z,101831.50
2023-02-24T22:41:54.641Z,101844.22
2023-02-24T22:44:24.200Z,101840.69
2023-02-24T22:46:53.782Z,101849.66
2023-02-24T22:49:23.350Z,101856.78
2023-02-24T22:51:52.925Z,101861.50
2023-02-24T22:54:22.581Z,101864.91
2023-02-24T22:56:52.260Z,101863.22
2023-02-24T22:59:21.886Z,101867.69
2023-02-24T23:01:51.449Z,101873.03
2023-02-24T23:04:21.265Z,101877.59
2023-02-24T23:06:50.851Z,101888.28
2023-02-24T23:09:21.287Z,101885.59
2023-02-24T23:11:50.950Z,101886.66
2023-02-24T23:14:20.760Z,101888.28
2023-02-24T23:16:56.817Z,101895.31
2023-02-24T23:19:27.161Z,101896.41
2023-02-24T23:21:57.957Z,101894.66
2023-02-24T23:24:27.634Z,101895.56
2023-02-24T23:26:59.189Z,101898.22
2023-02-24T23:29:29.078Z,101893.94
2023-02-24T23:31:58.910Z,101903.63
2023-02-24T23:34:28.572Z,101896.59
2023-02-24T23:36:58.112Z,101899.16
2023-02-24T23:39:27.656Z,101910.66
2023-02-24T23:41:57.817Z,101906.22
2023-02-24T23:44:27.768Z,101902.91
2023-02-24T23:46:59.663Z,101911.63
2023-02-24T23:49:39.246Z,101899.50
2023-02-24T23:52:17.110Z,101911.84
2023-02-24T23:54:51.515Z,101921.59
2023-02-24T23:57:22.287Z,101923.38
2023-02-24T23:59:51.856Z,101930.44
